Nearby METAR Reports

 

KCOS - Colorado Springs, Colorado, USA
Distance from station: S 6mi, 9km
Updated: Thu, 01-Jun-2023 7:54am MDT
Partly cloudy
Partly cloudy
 Wind from N
Wind: N 9 mph , 15 km/h
Temperature: 63°F , 17°C
Dew Point: 45°F , 7°C
Humidity: 52%
Barometer: 29.94 inHg , 1013.9 hPa
Clouds: Partly cloudy
Visibility: 10 miles , 16 km
Cloud details: Partly cloudy 11000 ft
Partly cloudy 22000 ft
2023/06/01 13:54 KCOS 011354Z 01008KT 10SM SCT110 SCT220 17/07 A2994 RMK AO2 SLP065 T01720072
KAFF - Usaf Academy/Cos, Colorado, USA
Distance from station: NW 7mi, 12km
Updated: Thu, 01-Jun-2023 6:55am MDT
NOT Current
Mostly cloudy
Mostly cloudy
 Wind from NNW
Wind: NNW 7 mph , 11 km/h
Temperature: 52°F , 11°C
Dew Point: 43°F , 6°C
Humidity: 72%
Barometer: 29.93 inHg , 1013.5 hPa
Clouds: Mostly cloudy
Visibility: 10 miles , 16 km
Cloud details: Mostly cloudy 8500 ft
2023/06/01 12:55 KAFF 011255Z 33006KT 10SM BKN085 11/06 A2993 RMK AO2A SLP064 T01140061
 
KFLY - Co Spngs Meadow, Colorado, USA
Distance from station: ENE 8mi, 13km
Updated: Thu, 01-Jun-2023 8:35am MDT

 Wind from N
Wind: N 10 mph , 17 km/h, Gust: 18 mph , 30 km/h
Temperature: 63°F , 17°C
Dew Point: 45°F , 7°C
Humidity: 52%
Barometer: 29.98 inHg , 1015.2 hPa
Visibility: 10 miles , 16 km
2023/06/01 14:35 KFLY 011435Z AUTO 35009G16KT 310V020 10SM 17/07 A2998 RMK AO2 T01650066
KFCS - Fort Carson, Colorado, USA
Distance from station: S 17mi, 27km
Updated: Thu, 01-Jun-2023 7:55am MDT
Few Clouds
Few Clouds
 Wind from N
Wind: N 6 mph , 9 km/h
Temperature: 61°F , 16°C
Dew Point: 46°F , 8°C
Humidity: 59%
Barometer: 29.91 inHg , 1012.9 hPa
Clouds: Few Clouds
Visibility: 7 miles , 11 km
Cloud details: Few Clouds 22000 ft
2023/06/01 13:55 KFCS 011355Z 35005KT 7SM FEW220 16/08 A2991 RMK AO2A SLPNO WND DATA ESTMD ALSTG/SLPNO ESTMD T01650080 FIBI
 
KMNH - Monument/Elbert, Colorado, USA
Distance from station: N 22mi, 35km
Updated: Sun, 28-May-2023 10:50am MDT
NOT Current
Clear
Clear
 Wind from NW
Wind: NW 3 mph , 6 km/h
Temperature: 64°F , 18°C
Dew Point: 34°F , 1°C
Humidity: 32%
Barometer: 30.11 inHg , 1019.6 hPa
Clouds: Clear
Visibility: 10 miles , 16 km
2023/05/28 16:50 KMNH 281650Z AUTO 31003KT 10SM CLR 18/01 A3011 RMK AO2
K1V6 - Canon City, Colorado, USA
Distance from station: SSW 39mi, 62km
Updated: Thu, 01-Jun-2023 8:35am MDT
Clear
Clear
 Wind from calm
Wind: Calm
Temperature: 63°F , 17°C
Dew Point: 46°F , 8°C
Humidity: 56%
Barometer: 29.93 inHg , 1013.5 hPa
Clouds: Clear
Visibility: 10 miles , 16 km
2023/06/01 14:35 K1V6 011435Z AUTO 00000KT 10SM CLR 17/08 A2993 RMK AO2
 
KPUB - Pueblo, Colorado, USA
Distance from station: SSE 44mi, 71km
Updated: Thu, 01-Jun-2023 7:53am MDT
Clear
Clear
 Wind from varies
Wind: varies 3 mph , 6 km/h
Temperature: 63°F , 17°C
Dew Point: 48°F , 9°C
Humidity: 59%
Barometer: 29.88 inHg , 1011.9 hPa
Clouds: Clear
Visibility: 10 miles , 16 km
2023/06/01 13:53 KPUB 011353Z VRB03KT 10SM CLR 17/09 A2988 RMK AO2 SLP064 T01720094
KAPA - Denver/Arapahoe, Colorado, USA
Distance from station: N 47mi, 75km
Updated: Thu, 01-Jun-2023 7:53am MDT
Mostly cloudy
Mostly cloudy
 Wind from WNW
Wind: WNW 3 mph , 6 km/h
Temperature: 52°F , 11°C
Dew Point: 48°F , 9°C
Humidity: 88%
Barometer: 29.94 inHg , 1013.9 hPa
Clouds: Mostly cloudy
Visibility: 10 miles , 16 km
Cloud details: Few Clouds 7000 ft
Mostly cloudy 10000 ft
Mostly cloudy 20000 ft
2023/06/01 13:53 KAPA 011353Z 30003KT 10SM FEW070 BKN100 BKN200 11/09 A2994 RMK AO2 SLP096 T01110094